createdAt,value
2024-05-09T00:00:53.328Z,22.60
2024-05-09T00:01:53.301Z,22.00
2024-05-09T00:02:53.276Z,23.30
2024-05-09T00:03:53.390Z,23.40
2024-05-09T00:04:53.421Z,22.00
2024-05-09T00:05:53.260Z,22.20
2024-05-09T00:06:53.210Z,22.70
2024-05-09T00:07:53.213Z,22.20
2024-05-09T00:08:53.201Z,22.30
2024-05-09T00:09:53.166Z,22.30
2024-05-09T00:10:53.307Z,23.30
2024-05-09T00:11:53.299Z,21.90
2024-05-09T00:12:53.139Z,22.60
2024-05-09T00:13:53.147Z,22.90
2024-05-09T00:14:53.136Z,22.80
2024-05-09T00:15:53.122Z,23.50
2024-05-09T00:16:53.138Z,23.50
2024-05-09T00:17:53.294Z,24.00
2024-05-09T00:18:53.122Z,24.20
2024-05-09T00:19:53.128Z,23.30
2024-05-09T00:20:53.108Z,24.00
2024-05-09T00:21:53.118Z,22.70
2024-05-09T00:22:53.026Z,23.40
2024-05-09T00:23:53.038Z,22.50
2024-05-09T00:24:53.003Z,22.90
2024-05-09T00:25:53.018Z,22.80
2024-05-09T00:26:52.987Z,22.60
2024-05-09T00:27:52.997Z,22.20
2024-05-09T00:28:53.000Z,22.70
2024-05-09T00:29:52.950Z,22.10
2024-05-09T00:30:52.907Z,22.60
2024-05-09T00:31:53.001Z,22.20
2024-05-09T00:32:53.042Z,21.80
2024-05-09T00:33:52.915Z,23.00
2024-05-09T00:34:53.014Z,22.10
2024-05-09T00:35:52.882Z,22.60
2024-05-09T00:36:52.882Z,21.70
2024-05-09T00:37:52.899Z,22.70
2024-05-09T00:38:52.812Z,23.20
2024-05-09T00:39:52.795Z,22.70
2024-05-09T00:40:52.813Z,22.80
2024-05-09T00:41:52.785Z,22.00
2024-05-09T00:42:52.781Z,22.70
2024-05-09T00:43:52.816Z,22.60
2024-05-09T00:44:52.754Z,22.90
2024-05-09T00:45:52.728Z,22.30
2024-05-09T00:46:52.747Z,22.70
2024-05-09T00:47:52.855Z,21.80
2024-05-09T00:48:52.743Z,21.40
2024-05-09T00:49:52.683Z,21.60
2024-05-09T00:50:52.670Z,22.30
2024-05-09T00:51:52.686Z,21.40
2024-05-09T00:52:52.656Z,22.40
2024-05-09T00:53:52.658Z,21.40
2024-05-09T00:54:52.628Z,21.60
2024-05-09T00:55:52.674Z,21.70
2024-05-09T00:56:52.604Z,21.70
2024-05-09T00:57:52.614Z,22.00
2024-05-09T00:58:52.597Z,22.70
2024-05-09T00:59:52.559Z,22.20
2024-05-09T01:00:52.617Z,22.80
2024-05-09T01:01:52.595Z,22.30
2024-05-09T01:02:52.596Z,22.70
2024-05-09T01:03:52.739Z,23.10
2024-05-09T01:04:52.575Z,21.90
2024-05-09T01:05:52.632Z,22.80
2024-05-09T01:06:52.539Z,22.90
2024-05-09T01:07:52.460Z,23.20
2024-05-09T01:08:52.449Z,22.80
2024-05-09T01:09:52.447Z,22.70
2024-05-09T01:10:52.645Z,21.90
2024-05-09T01:11:52.522Z,22.30
2024-05-09T01:12:52.395Z,22.50
2024-05-09T01:13:52.430Z,22.50
2024-05-09T01:14:52.359Z,22.50
2024-05-09T01:15:52.357Z,23.00
2024-05-09T01:16:52.460Z,23.50
2024-05-09T01:17:52.639Z,22.80
2024-05-09T01:18:52.406Z,23.00
2024-05-09T01:19:52.410Z,23.10
2024-05-09T01:20:52.340Z,23.40
2024-05-09T01:21:52.339Z,23.30
2024-05-09T01:22:52.333Z,23.20
2024-05-09T01:23:52.256Z,23.30
2024-05-09T01:24:52.266Z,22.60
2024-05-09T01:25:52.417Z,23.60
2024-05-09T01:26:52.228Z,23.40
2024-05-09T01:27:52.241Z,23.10
2024-05-09T01:28:52.253Z,22.20
2024-05-09T01:29:52.185Z,23.40
2024-05-09T01:30:52.191Z,23.50
2024-05-09T01:31:52.385Z,23.70
2024-05-09T01:32:52.346Z,21.90
2024-05-09T01:33:52.271Z,23.00
2024-05-09T01:34:52.198Z,23.50
2024-05-09T01:35:52.130Z,23.40
2024-05-09T01:36:52.125Z,23.80
2024-05-09T01:37:52.105Z,24.00
2024-05-09T01:38:52.091Z,23.20
2024-05-09T01:39:52.059Z,23.70
2024-05-09T01:40:52.043Z,23.10
2024-05-09T01:41:52.028Z,23.40
2024-05-09T01:42:52.009Z,23.70
2024-05-09T01:43:52.042Z,23.50
2024-05-09T01:44:51.996Z,23.50
2024-05-09T01:45:52.009Z,24.30
2024-05-09T01:46:52.043Z,23.30
2024-05-09T01:47:52.205Z,23.30
2024-05-09T01:48:52.090Z,22.80
2024-05-09T01:49:51.999Z,23.10
2024-05-09T01:50:51.924Z,22.50
2024-05-09T01:51:51.908Z,23.00
2024-05-09T01:52:51.976Z,23.40
2024-05-09T01:53:51.902Z,23.90
2024-05-09T01:54:51.913Z,23.00
2024-05-09T01:55:51.955Z,23.30
2024-05-09T01:56:51.881Z,23.50
2024-05-09T01:57:51.828Z,22.90
2024-05-09T01:58:51.853Z,22.90
2024-05-09T01:59:51.800Z,22.70
2024-05-09T02:00:51.839Z,22.40
2024-05-09T02:01:56.834Z,23.20
2024-05-09T02:02:51.894Z,22.70
2024-05-09T02:03:52.064Z,22.70
2024-05-09T02:04:51.797Z,22.90
2024-05-09T02:05:51.762Z,22.10
2024-05-09T02:06:51.706Z,22.80
2024-05-09T02:07:51.728Z,22.90
2024-05-09T02:08:51.680Z,22.60
2024-05-09T02:09:51.712Z,22.00
2024-05-09T02:10:51.833Z,22.70
2024-05-09T02:11:51.741Z,22.40
2024-05-09T02:12:51.641Z,23.30
2024-05-09T02:13:51.661Z,22.40
2024-05-09T02:14:51.627Z,22.10
2024-05-09T02:15:51.623Z,22.40
2024-05-09T02:16:51.598Z,23.70
2024-05-09T02:17:51.883Z,22.30
2024-05-09T02:18:51.624Z,22.40
2024-05-09T02:19:51.614Z,21.90
2024-05-09T02:20:51.582Z,22.40
2024-05-09T02:21:51.552Z,23.20
2024-05-09T02:22:51.547Z,21.90
2024-05-09T02:23:51.542Z,22.20
2024-05-09T02:24:51.485Z,22.20
2024-05-09T02:25:51.506Z,23.00
2024-05-09T02:26:51.484Z,22.70
2024-05-09T02:27:51.460Z,22.30
2024-05-09T02:28:51.446Z,21.60
2024-05-09T02:29:51.435Z,22.80
2024-05-09T02:30:51.411Z,21.80
2024-05-09T02:31:51.487Z,22.00
2024-05-09T02:32:51.499Z,22.80
2024-05-09T02:33:51.708Z,22.20
2024-05-09T02:34:51.379Z,22.40
2024-05-09T02:35:51.368Z,22.30
2024-05-09T02:36:51.346Z,21.50
2024-05-09T02:37:51.370Z,21.40
2024-05-09T02:38:51.327Z,21.70
2024-05-09T02:39:51.318Z,21.60
2024-05-09T02:40:51.329Z,22.20
2024-05-09T02:41:51.292Z,21.40
2024-05-09T02:42:51.285Z,22.00
2024-05-09T02:43:51.340Z,22.10
2024-05-09T02:44:51.266Z,22.30
2024-05-09T02:45:51.259Z,22.30
2024-05-09T02:46:51.250Z,23.00
2024-05-09T02:47:51.328Z,22.50
2024-05-09T02:48:51.306Z,22.50
2024-05-09T02:49:51.381Z,21.70
2024-05-09T02:50:51.240Z,22.80
2024-05-09T02:51:51.167Z,21.90
2024-05-09T02:52:51.243Z,22.10
2024-05-09T02:53:51.207Z,22.30
2024-05-09T02:54:51.202Z,21.90
2024-05-09T02:55:51.177Z,22.20
2024-05-09T02:56:51.229Z,21.90
2024-05-09T02:57:51.094Z,21.50
2024-05-09T02:58:51.106Z,22.30
2024-05-09T02:59:51.177Z,22.30
2024-05-09T03:00:51.083Z,21.60
2024-05-09T03:01:51.126Z,21.70
2024-05-09T03:02:51.166Z,21.30
2024-05-09T03:03:51.170Z,21.20
2024-05-09T03:04:51.143Z,20.30
2024-05-09T03:05:51.070Z,19.70
2024-05-09T03:06:50.969Z,20.50
2024-05-09T03:07:50.962Z,20.60
2024-05-09T03:08:50.945Z,20.30
2024-05-09T03:09:50.948Z,20.10
2024-05-09T03:10:50.952Z,19.90
2024-05-09T03:11:51.046Z,19.50
2024-05-09T03:12:50.912Z,19.20
2024-05-09T03:13:50.979Z,19.60
2024-05-09T03:14:50.887Z,19.10
2024-05-09T03:15:50.880Z,19.30
2024-05-09T03:16:50.882Z,18.30
2024-05-09T03:17:51.008Z,19.00
2024-05-09T03:18:50.979Z,18.50
2024-05-09T03:19:50.862Z,18.20
2024-05-09T03:20:50.843Z,18.60
2024-05-09T03:21:50.815Z,19.20
2024-05-09T03:22:52.670Z,19.10
2024-05-09T03:23:50.811Z,20.00
2024-05-09T03:24:50.739Z,20.90
2024-05-09T03:25:50.732Z,20.20
2024-05-09T03:26:50.747Z,20.40
2024-05-09T03:27:50.699Z,20.40
2024-05-09T03:28:50.751Z,20.40
2024-05-09T03:29:50.678Z,21.00
2024-05-09T03:30:50.664Z,20.40
2024-05-09T03:31:50.736Z,19.90
2024-05-09T03:32:50.737Z,21.10
2024-05-09T03:33:50.832Z,21.10
2024-05-09T03:34:50.633Z,21.90
2024-05-09T03:35:50.607Z,21.80
2024-05-09T03:36:50.605Z,22.40
2024-05-09T03:37:50.615Z,22.20
2024-05-09T03:38:50.578Z,22.20
2024-05-09T03:39:50.557Z,22.90
2024-05-09T03:40:51.118Z,23.00
2024-05-09T03:41:50.532Z,21.60
2024-05-09T03:42:50.523Z,21.60
2024-05-09T03:43:50.611Z,22.20
2024-05-09T03:44:50.504Z,22.70
2024-05-09T03:45:50.496Z,22.10
2024-05-09T03:46:50.520Z,21.80
2024-05-09T03:47:50.594Z,22.30
2024-05-09T03:48:50.518Z,22.40
2024-05-09T03:49:50.531Z,22.20
2024-05-09T03:50:50.439Z,22.50
2024-05-09T03:51:50.414Z,22.70
2024-05-09T03:52:50.436Z,23.40
2024-05-09T03:53:50.377Z,23.30
2024-05-09T03:54:50.364Z,22.90
2024-05-09T03:55:50.395Z,23.70
2024-05-09T03:56:50.357Z,22.50
2024-05-09T03:57:50.335Z,23.20
2024-05-09T03:58:50.343Z,23.50
2024-05-09T03:59:50.306Z,22.50
2024-05-09T04:00:50.374Z,22.90
2024-05-09T04:01:50.366Z,22.40
2024-05-09T04:02:50.350Z,23.30
2024-05-09T04:03:50.414Z,22.90
2024-05-09T04:04:50.442Z,22.60
2024-05-09T04:05:50.262Z,23.40
2024-05-09T04:06:50.229Z,23.30
2024-05-09T04:07:50.233Z,23.00
2024-05-09T04:08:50.193Z,23.00
2024-05-09T04:09:50.179Z,22.00
2024-05-09T04:10:50.183Z,22.80
2024-05-09T04:11:50.216Z,23.30
2024-05-09T04:12:50.162Z,22.80
2024-05-09T04:13:50.138Z,23.50
2024-05-09T04:14:50.118Z,23.00
2024-05-09T04:15:50.122Z,21.70
2024-05-09T04:16:50.197Z,22.40
2024-05-09T04:17:50.214Z,22.80
2024-05-09T04:18:50.246Z,22.70
2024-05-09T04:19:50.102Z,22.40
2024-05-09T04:20:50.086Z,23.00
2024-05-09T04:21:50.035Z,22.70
2024-05-09T04:22:50.065Z,21.50
2024-05-09T04:23:50.041Z,22.00
2024-05-09T04:24:50.001Z,22.70
2024-05-09T04:25:50.044Z,21.50
2024-05-09T04:26:49.969Z,21.90
2024-05-09T04:27:49.954Z,22.70
2024-05-09T04:28:49.993Z,22.10
2024-05-09T04:29:49.947Z,21.80
2024-05-09T04:30:49.932Z,21.90
2024-05-09T04:31:49.928Z,21.50
2024-05-09T04:32:50.008Z,22.00
2024-05-09T04:33:50.065Z,22.70
2024-05-09T04:34:49.934Z,22.10
2024-05-09T04:35:49.866Z,22.30
2024-05-09T04:36:49.857Z,21.50
2024-05-09T04:37:49.937Z,23.00
2024-05-09T04:38:49.837Z,22.30
2024-05-09T04:39:49.833Z,22.20
2024-05-09T04:40:49.816Z,22.20
2024-05-09T04:41:49.817Z,22.10
2024-05-09T04:42:49.797Z,22.40
2024-05-09T04:43:49.819Z,22.80
2024-05-09T04:44:49.745Z,22.30
2024-05-09T04:45:49.782Z,22.60
2024-05-09T04:46:49.819Z,22.00
2024-05-09T04:47:49.958Z,21.80
2024-05-09T04:48:49.843Z,22.60
2024-05-09T04:49:49.720Z,22.20
2024-05-09T04:50:49.888Z,22.70
2024-05-09T04:51:49.695Z,22.40
2024-05-09T04:52:49.679Z,22.40
2024-05-09T04:53:49.683Z,21.60
2024-05-09T04:54:49.660Z,22.30
2024-05-09T04:55:49.685Z,21.80
2024-05-09T04:56:49.611Z,22.80
2024-05-09T04:57:49.593Z,22.10
2024-05-09T04:58:49.606Z,22.30
2024-05-09T04:59:49.549Z,21.60
2024-05-09T05:00:49.596Z,22.20
2024-05-09T05:01:49.636Z,22.10
2024-05-09T05:02:58.598Z,21.90
2024-05-09T05:03:50.346Z,22.30
2024-05-09T05:04:49.742Z,22.50
2024-05-09T05:05:49.538Z,22.80
2024-05-09T05:06:49.476Z,21.90
2024-05-09T05:07:49.506Z,21.90
2024-05-09T05:08:49.469Z,21.80
2024-05-09T05:09:49.432Z,21.40
2024-05-09T05:10:49.747Z,21.30
2024-05-09T05:11:49.564Z,21.90
2024-05-09T05:12:49.410Z,21.90
2024-05-09T05:13:49.454Z,20.80
2024-05-09T05:14:49.404Z,21.40
2024-05-09T05:15:49.382Z,20.90
2024-05-09T05:16:49.429Z,20.40
2024-05-09T05:17:49.452Z,21.50
2024-05-09T05:18:49.409Z,21.50
2024-05-09T05:19:49.682Z,21.30
2024-05-09T05:20:49.477Z,20.70
2024-05-09T05:21:49.306Z,20.10
2024-05-09T05:22:49.377Z,20.80
2024-05-09T05:23:49.286Z,21.10
2024-05-09T05:24:49.256Z,19.70
2024-05-09T05:25:49.486Z,21.00
2024-05-09T05:26:49.208Z,20.30
2024-05-09T05:27:49.219Z,20.30
2024-05-09T05:28:49.289Z,20.30
2024-05-09T05:29:49.232Z,20.30
2024-05-09T05:30:49.273Z,21.20
2024-05-09T05:31:49.264Z,20.10
2024-05-09T05:32:49.248Z,20.30
2024-05-09T05:33:49.375Z,20.30
2024-05-09T05:34:49.171Z,20.30
2024-05-09T05:35:49.128Z,20.60
2024-05-09T05:36:49.117Z,20.00
2024-05-09T05:37:49.199Z,20.10
2024-05-09T05:38:49.150Z,19.80
2024-05-09T05:39:49.086Z,20.10
2024-05-09T05:40:49.074Z,20.30
2024-05-09T05:41:49.046Z,20.30
2024-05-09T05:42:49.041Z,20.50
2024-05-09T05:43:49.036Z,20.60
2024-05-09T05:44:49.031Z,20.60
2024-05-09T05:45:49.140Z,20.70
2024-05-09T05:46:49.030Z,19.80
2024-05-09T05:47:49.090Z,21.10
2024-05-09T05:48:49.200Z,20.20
2024-05-09T05:49:48.977Z,20.10
2024-05-09T05:50:48.998Z,20.00
2024-05-09T05:51:48.915Z,20.00
2024-05-09T05:52:48.937Z,20.00
2024-05-09T05:53:49.026Z,20.10
2024-05-09T05:54:48.885Z,20.10
2024-05-09T05:55:48.901Z,20.50
2024-05-09T05:56:48.844Z,20.20
2024-05-09T05:57:48.844Z,21.00
2024-05-09T05:58:48.895Z,20.60
2024-05-09T05:59:48.819Z,20.70
2024-05-09T06:00:48.904Z,20.60
2024-05-09T06:01:48.801Z,20.90
2024-05-09T06:02:48.958Z,21.30
2024-05-09T06:03:49.147Z,19.90
2024-05-09T06:04:48.946Z,21.10
2024-05-09T06:05:48.854Z,20.30
2024-05-09T06:06:48.748Z,20.30
2024-05-09T06:07:48.729Z,21.00
2024-05-09T06:08:48.775Z,20.70
2024-05-09T06:09:50.392Z,20.50
2024-05-09T06:10:48.777Z,20.70
2024-05-09T06:11:48.722Z,20.50
2024-05-09T06:12:48.699Z,20.50
2024-05-09T06:13:48.671Z,20.20
2024-05-09T06:14:48.637Z,20.50
2024-05-09T06:15:48.604Z,20.10
2024-05-09T06:16:48.642Z,20.20
2024-05-09T06:17:48.687Z,20.90
2024-05-09T06:18:48.702Z,19.50
2024-05-09T06:19:48.802Z,20.40
2024-05-09T06:20:48.603Z,19.70
2024-05-09T06:21:48.540Z,21.20
2024-05-09T06:22:48.653Z,20.50
2024-05-09T06:23:48.561Z,20.50
2024-05-09T06:24:48.509Z,20.60
2024-05-09T06:25:48.578Z,21.10
2024-05-09T06:26:48.484Z,20.30
2024-05-09T06:27:48.457Z,20.00
2024-05-09T06:28:48.523Z,19.60
2024-05-09T06:29:48.427Z,20.50
2024-05-09T06:30:48.459Z,20.90
2024-05-09T06:31:48.468Z,21.00
2024-05-09T06:32:48.620Z,20.70
2024-05-09T06:33:48.540Z,20.60
2024-05-09T06:34:48.593Z,21.40
2024-05-09T06:35:48.449Z,20.60
2024-05-09T06:36:48.378Z,20.60
2024-05-09T06:37:48.413Z,20.90
2024-05-09T06:38:48.359Z,20.30
2024-05-09T06:39:48.295Z,19.70
2024-05-09T06:40:48.443Z,19.50
2024-05-09T06:41:48.281Z,19.30
2024-05-09T06:42:48.304Z,19.70
2024-05-09T06:43:48.362Z,19.20
2024-05-09T06:44:48.239Z,18.80
2024-05-09T06:45:49.000Z,19.10
2024-05-09T06:46:48.255Z,19.20
2024-05-09T06:47:48.295Z,19.00
2024-05-09T06:48:48.677Z,19.00
2024-05-09T06:49:48.242Z,18.80
2024-05-09T06:50:48.397Z,19.30
2024-05-09T06:51:48.143Z,18.50
2024-05-09T06:52:48.186Z,18.50
2024-05-09T06:53:48.170Z,19.40
2024-05-09T06:54:48.113Z,18.80
2024-05-09T06:55:48.212Z,19.00
2024-05-09T06:56:48.082Z,18.60
2024-05-09T06:57:48.066Z,18.50
2024-05-09T06:58:48.105Z,18.00
2024-05-09T06:59:48.027Z,18.40
2024-05-09T07:00:48.164Z,18.40
2024-05-09T07:01:48.066Z,18.70
2024-05-09T07:02:48.197Z,17.80
2024-05-09T07:03:48.038Z,18.30
2024-05-09T07:04:48.079Z,18.40
2024-05-09T07:05:49.337Z,18.50
2024-05-09T07:06:47.951Z,18.90
2024-05-09T07:07:48.023Z,19.20
2024-05-09T07:08:48.822Z,19.60
2024-05-09T07:09:47.912Z,18.90
2024-05-09T07:10:48.040Z,19.20
2024-05-09T07:11:48.004Z,20.40
2024-05-09T07:12:47.886Z,23.10
2024-05-09T07:13:47.925Z,24.70
2024-05-09T07:14:47.923Z,22.30
2024-05-09T07:15:47.900Z,25.20
2024-05-09T07:16:47.890Z,23.90
2024-05-09T07:17:48.055Z,23.50
2024-05-09T07:18:48.076Z,20.80
2024-05-09T07:19:47.867Z,22.20
2024-05-09T07:20:48.377Z,21.20
2024-05-09T07:21:47.777Z,21.60
2024-05-09T07:22:47.768Z,21.80
2024-05-09T07:23:47.893Z,20.50
2024-05-09T07:24:47.721Z,19.80
2024-05-09T07:25:47.868Z,19.60
2024-05-09T07:26:47.734Z,19.60
2024-05-09T07:27:47.690Z,20.10
2024-05-09T07:28:47.710Z,20.40
2024-05-09T07:29:47.749Z,19.80
2024-05-09T07:30:47.686Z,19.70
2024-05-09T07:31:47.748Z,19.60
2024-05-09T07:32:47.948Z,19.80
2024-05-09T07:33:47.772Z,19.90
2024-05-09T07:34:47.662Z,18.50
2024-05-09T07:35:47.632Z,18.80
2024-05-09T07:36:47.565Z,19.60
2024-05-09T07:37:47.582Z,24.10
2024-05-09T07:38:47.649Z,24.10
2024-05-09T07:39:47.587Z,24.60
2024-05-09T07:40:47.597Z,23.60
2024-05-09T07:41:47.516Z,21.00
2024-05-09T07:42:47.473Z,20.00
2024-05-09T07:43:47.536Z,19.70
2024-05-09T07:44:47.504Z,19.10
2024-05-09T07:45:52.786Z,27.60
2024-05-09T07:47:48.596Z,24.70
2024-05-09T07:51:31.610Z,20.10
2024-05-09T07:53:37.214Z,21.50
2024-05-09T07:53:51.325Z,20.30
2024-05-09T07:54:23.723Z,18.20
2024-05-09T07:55:23.603Z,18.10
2024-05-09T07:56:24.397Z,17.90
2024-05-09T07:57:23.408Z,17.70
2024-05-09T07:58:23.371Z,18.20
2024-05-09T07:59:23.373Z,16.70
2024-05-09T08:00:29.773Z,17.20
2024-05-09T08:01:23.431Z,17.40
2024-05-09T08:02:23.477Z,17.90
2024-05-09T08:03:23.589Z,17.20
2024-05-09T08:04:26.464Z,17.40
2024-05-09T08:05:23.416Z,19.10
2024-05-09T08:06:23.278Z,19.80
2024-05-09T08:07:23.302Z,18.70
2024-05-09T08:08:23.371Z,19.20
2024-05-09T08:09:23.263Z,17.10
2024-05-09T08:10:28.453Z,17.40
2024-05-09T08:11:23.243Z,16.80
2024-05-09T08:12:23.196Z,18.00
2024-05-09T08:13:23.356Z,17.70
2024-05-09T08:14:23.222Z,18.80
2024-05-09T08:15:23.188Z,18.30
2024-05-09T08:16:23.286Z,17.30
2024-05-09T08:17:23.274Z,22.30
2024-05-09T08:18:23.208Z,19.30
2024-05-09T08:19:23.257Z,19.50
2024-05-09T08:20:30.904Z,20.10
2024-05-09T08:21:23.130Z,18.60
2024-05-09T08:22:23.124Z,18.60
2024-05-09T08:23:23.058Z,17.70
2024-05-09T08:24:23.064Z,17.70
2024-05-09T08:25:23.070Z,17.70
2024-05-09T08:26:23.042Z,17.90
2024-05-09T08:27:23.013Z,18.40
2024-05-09T08:28:23.107Z,17.30
2024-05-09T08:29:23.003Z,17.60
2024-05-09T08:30:30.017Z,17.40
2024-05-09T08:31:23.058Z,18.30
2024-05-09T08:32:23.033Z,17.80
2024-05-09T08:33:22.992Z,17.60
2024-05-09T08:34:23.095Z,17.20
2024-05-09T08:35:22.922Z,17.00
2024-05-09T08:36:22.911Z,17.50
2024-05-09T08:37:26.065Z,16.70
2024-05-09T08:38:22.891Z,16.60
2024-05-09T08:39:22.852Z,16.60
2024-05-09T08:40:30.705Z,21.90
2024-05-09T08:41:22.868Z,19.40
2024-05-09T08:42:22.831Z,26.00
2024-05-09T08:43:23.106Z,17.60
2024-05-09T08:44:22.807Z,16.40
2024-05-09T08:45:22.793Z,18.80
2024-05-09T08:46:23.027Z,17.20
2024-05-09T08:47:22.879Z,13.00
2024-05-09T08:48:23.044Z,12.90
2024-05-09T08:49:22.903Z,12.20
2024-05-09T08:50:31.843Z,13.70
2024-05-09T08:51:22.721Z,16.10
2024-05-09T08:52:22.778Z,12.80
2024-05-09T08:53:22.784Z,11.60
2024-05-09T08:54:22.693Z,12.40
2024-05-09T08:55:22.673Z,12.00
2024-05-09T08:56:22.658Z,11.90
2024-05-09T08:57:22.639Z,12.20
2024-05-09T08:58:22.673Z,11.20
2024-05-09T08:59:22.661Z,10.70
2024-05-09T09:00:33.378Z,9.70
2024-05-09T09:01:22.669Z,10.00
2024-05-09T09:02:22.831Z,9.70
2024-05-09T09:03:22.627Z,10.30
2024-05-09T09:04:22.666Z,9.80
2024-05-09T09:05:22.620Z,9.90
2024-05-09T09:06:22.516Z,10.70
2024-05-09T09:07:22.523Z,11.30
2024-05-09T09:08:22.502Z,11.40
2024-05-09T09:09:22.488Z,12.00
2024-05-09T09:10:29.621Z,12.70
2024-05-09T09:11:22.486Z,12.60
2024-05-09T09:12:22.448Z,11.30
2024-05-09T09:13:22.505Z,10.10
2024-05-09T09:14:22.460Z,10.30
2024-05-09T09:15:22.398Z,10.40
2024-05-09T09:16:22.507Z,9.60
2024-05-09T09:17:22.440Z,9.20
2024-05-09T09:18:22.476Z,9.50
2024-05-09T09:19:22.510Z,8.80
2024-05-09T09:20:28.759Z,9.90
2024-05-09T09:21:22.358Z,7.90
2024-05-09T09:22:22.347Z,8.20
2024-05-09T09:23:22.333Z,8.40
2024-05-09T09:24:22.274Z,8.00
2024-05-09T09:25:22.272Z,8.50
2024-05-09T09:26:22.278Z,8.10
2024-05-09T09:27:22.248Z,8.10
2024-05-09T09:28:22.356Z,8.50
2024-05-09T09:29:22.243Z,7.80
2024-05-09T09:30:34.433Z,8.80
2024-05-09T09:31:22.235Z,8.70
2024-05-09T09:32:22.204Z,8.50
2024-05-09T09:33:22.297Z,8.80
2024-05-09T09:34:22.192Z,8.40
2024-05-09T09:35:22.235Z,9.10
2024-05-09T09:36:22.120Z,8.70
2024-05-09T09:37:22.094Z,8.90
2024-05-09T09:38:22.108Z,9.30
2024-05-09T09:39:22.083Z,8.40
2024-05-09T09:40:22.446Z,8.70
2024-05-09T09:41:22.066Z,7.90
2024-05-09T09:42:22.042Z,7.60
2024-05-09T09:43:22.705Z,8.30
2024-05-09T09:44:22.060Z,8.30
2024-05-09T09:45:22.052Z,7.70
2024-05-09T09:46:22.054Z,7.80
2024-05-09T09:47:22.153Z,7.80
2024-05-09T09:48:22.567Z,9.20
2024-05-09T09:49:22.035Z,22.10
2024-05-09T09:50:27.903Z,13.30
2024-05-09T09:51:21.945Z,9.20
2024-05-09T09:52:22.208Z,9.90
2024-05-09T09:53:21.943Z,8.80
2024-05-09T09:54:21.886Z,8.10
2024-05-09T09:55:21.943Z,8.40
2024-05-09T09:56:21.866Z,8.70
2024-05-09T09:57:21.863Z,7.80
2024-05-09T09:58:21.912Z,9.00
2024-05-09T09:59:21.822Z,8.20
2024-05-09T10:00:27.194Z,8.10
2024-05-09T10:01:21.889Z,8.50
2024-05-09T10:02:21.955Z,8.30
2024-05-09T10:03:21.795Z,8.10
2024-05-09T10:04:21.862Z,8.70
2024-05-09T10:05:21.864Z,8.60
2024-05-09T10:06:21.709Z,8.60
2024-05-09T10:07:21.791Z,8.50
2024-05-09T10:08:21.684Z,8.40
2024-05-09T10:09:21.683Z,8.70
2024-05-09T10:10:29.871Z,15.00
2024-05-09T10:11:21.730Z,11.20
2024-05-09T10:12:21.738Z,9.40
2024-05-09T10:13:21.760Z,10.20
2024-05-09T10:14:21.603Z,7.90
2024-05-09T10:15:21.700Z,8.10
2024-05-09T10:16:21.804Z,7.90
2024-05-09T10:17:21.688Z,7.20
2024-05-09T10:18:22.281Z,7.80
2024-05-09T10:19:21.609Z,7.30
2024-05-09T10:20:25.127Z,7.30
2024-05-09T10:21:21.556Z,7.20
2024-05-09T10:22:21.587Z,7.00
2024-05-09T10:23:21.490Z,7.30
2024-05-09T10:24:21.511Z,7.50
2024-05-09T10:25:21.636Z,7.60
2024-05-09T10:26:21.451Z,7.40
2024-05-09T10:27:21.445Z,7.50
2024-05-09T10:28:21.481Z,7.90
2024-05-09T10:29:21.415Z,7.40
2024-05-09T10:30:26.078Z,7.90
2024-05-09T10:31:21.428Z,6.80
2024-05-09T10:32:21.483Z,6.90
2024-05-09T10:33:21.545Z,7.00
2024-05-09T10:34:21.515Z,8.10
2024-05-09T10:35:21.401Z,10.30
2024-05-09T10:36:21.313Z,8.70
2024-05-09T10:37:21.424Z,9.30
2024-05-09T10:38:21.285Z,15.40
2024-05-09T10:39:21.309Z,13.80
2024-05-09T10:40:26.565Z,10.70
2024-05-09T10:41:21.275Z,9.20
2024-05-09T10:42:21.252Z,8.70
2024-05-09T10:43:21.347Z,8.40
2024-05-09T10:44:21.206Z,7.70
2024-05-09T10:45:21.287Z,7.60
2024-05-09T10:46:21.480Z,7.90
2024-05-09T10:47:21.250Z,8.70
2024-05-09T10:48:21.302Z,8.40
2024-05-09T10:49:21.326Z,8.10
2024-05-09T10:50:28.127Z,8.00
2024-05-09T10:51:21.136Z,8.50
2024-05-09T10:52:21.148Z,8.00
2024-05-09T10:53:21.092Z,8.20
2024-05-09T10:54:21.078Z,8.30
2024-05-09T10:55:21.399Z,8.20
2024-05-09T10:56:21.063Z,8.40
2024-05-09T10:57:21.030Z,8.90
2024-05-09T10:58:21.073Z,18.40
2024-05-09T10:59:21.007Z,20.80
2024-05-09T11:00:27.639Z,18.60
2024-05-09T11:01:21.123Z,20.10
2024-05-09T11:02:21.297Z,20.50
2024-05-09T11:03:21.056Z,15.90
2024-05-09T11:04:21.194Z,12.80
2024-05-09T11:05:21.144Z,11.90
2024-05-09T11:06:20.960Z,11.60
2024-05-09T11:07:21.056Z,9.70
2024-05-09T11:08:20.935Z,9.80
2024-05-09T11:09:20.908Z,9.40
2024-05-09T11:10:27.640Z,13.20
2024-05-09T11:11:20.909Z,27.10
2024-05-09T11:12:27.342Z,22.70
2024-05-09T11:13:20.829Z,15.50
2024-05-09T11:14:20.856Z,14.00
2024-05-09T11:15:20.793Z,9.50
2024-05-09T11:16:21.370Z,9.40
2024-05-09T11:17:20.916Z,8.80
2024-05-09T11:18:24.249Z,8.50
2024-05-09T11:19:20.921Z,8.50
2024-05-09T11:20:26.929Z,8.00
2024-05-09T11:21:20.710Z,8.60
2024-05-09T11:22:20.813Z,8.70
2024-05-09T11:23:20.693Z,8.40
2024-05-09T11:24:20.677Z,10.00
2024-05-09T11:25:20.747Z,10.40
2024-05-09T11:26:20.705Z,14.10
2024-05-09T11:27:20.640Z,11.10
2024-05-09T11:28:20.693Z,9.80
2024-05-09T11:29:20.623Z,9.50
2024-05-09T11:30:29.536Z,8.70
2024-05-09T11:31:20.844Z,10.00
2024-05-09T11:32:20.632Z,9.20
2024-05-09T11:33:20.595Z,8.80
2024-05-09T11:34:20.613Z,9.50
2024-05-09T11:35:20.524Z,9.10
2024-05-09T11:36:20.535Z,9.80
2024-05-09T11:37:20.650Z,12.40
2024-05-09T11:38:20.522Z,10.90
2024-05-09T11:39:21.159Z,10.20
2024-05-09T11:40:25.654Z,10.00
2024-05-09T11:41:20.470Z,10.00
2024-05-09T11:42:20.458Z,9.80
2024-05-09T11:43:20.583Z,9.40
2024-05-09T11:44:20.413Z,7.90
2024-05-09T11:45:20.403Z,8.10
2024-05-09T11:46:20.423Z,8.50
2024-05-09T11:47:20.497Z,8.40
2024-05-09T11:48:20.487Z,8.20
2024-05-09T11:49:21.466Z,8.20
2024-05-09T11:50:27.160Z,8.10
2024-05-09T11:51:20.325Z,7.50
2024-05-09T11:52:20.343Z,7.60
2024-05-09T11:53:20.300Z,7.70
2024-05-09T11:54:20.438Z,7.30
2024-05-09T11:55:20.842Z,8.90
2024-05-09T11:56:20.298Z,11.10
2024-05-09T11:57:20.260Z,20.50
2024-05-09T11:58:20.347Z,17.10
2024-05-09T11:59:20.219Z,11.90
2024-05-09T12:00:29.159Z,11.10
2024-05-09T12:01:21.016Z,10.10
2024-05-09T12:02:20.462Z,8.30
2024-05-09T12:03:20.305Z,7.90
2024-05-09T12:04:20.327Z,7.40
2024-05-09T12:05:20.436Z,8.00
2024-05-09T12:06:20.134Z,7.20
2024-05-09T12:07:20.271Z,7.30
2024-05-09T12:08:20.100Z,7.60
2024-05-09T12:09:20.113Z,7.60
2024-05-09T12:10:26.009Z,7.30
2024-05-09T12:11:20.104Z,7.10
2024-05-09T12:12:20.059Z,7.30
2024-05-09T12:13:20.272Z,7.60
2024-05-09T12:14:20.026Z,7.30
2024-05-09T12:15:20.050Z,7.20
2024-05-09T12:16:20.232Z,7.20
2024-05-09T12:17:20.096Z,6.60
2024-05-09T12:18:20.019Z,6.10
2024-05-09T12:19:20.035Z,5.90
2024-05-09T12:20:28.522Z,5.90
2024-05-09T12:21:19.935Z,5.60
2024-05-09T12:22:19.989Z,4.70
2024-05-09T12:23:19.909Z,4.90
2024-05-09T12:24:19.894Z,5.00
2024-05-09T12:25:19.967Z,4.60
2024-05-09T12:26:19.892Z,5.20
2024-05-09T12:27:19.879Z,5.20
2024-05-09T12:28:20.112Z,5.10
2024-05-09T12:29:19.862Z,5.30
2024-05-09T12:30:32.199Z,5.40
2024-05-09T12:31:19.842Z,5.70
2024-05-09T12:32:19.839Z,5.60
2024-05-09T12:33:20.041Z,5.50
2024-05-09T12:34:19.866Z,6.20
2024-05-09T12:35:19.760Z,6.80
2024-05-09T12:36:19.739Z,6.00
2024-05-09T12:37:19.795Z,10.80
2024-05-09T12:38:19.735Z,6.50
2024-05-09T12:39:19.736Z,5.50
2024-05-09T12:40:26.796Z,4.80
2024-05-09T12:41:19.682Z,5.10
2024-05-09T12:42:27.059Z,6.20
2024-05-09T12:43:19.822Z,5.70
2024-05-09T12:44:19.656Z,4.80
2024-05-09T12:45:19.620Z,5.40
2024-05-09T12:46:19.702Z,5.20
2024-05-09T12:47:19.750Z,5.00
2024-05-09T12:48:19.714Z,4.50
2024-05-09T12:49:20.264Z,4.50
2024-05-09T12:50:28.795Z,4.10
2024-05-09T12:51:19.577Z,4.10
2024-05-09T12:52:19.552Z,3.90
2024-05-09T12:53:19.554Z,4.20
2024-05-09T12:54:19.589Z,4.00
2024-05-09T12:55:19.538Z,4.20
2024-05-09T12:56:19.483Z,4.30
2024-05-09T12:57:19.487Z,4.00
2024-05-09T12:58:19.702Z,3.80
2024-05-09T12:59:19.471Z,4.20
2024-05-09T13:00:24.159Z,7.80
2024-05-09T13:01:19.461Z,10.40
2024-05-09T13:02:19.625Z,6.00